Reid Mcallister — WDE6394 — position and weather

sailwx.info

Track history (hours):
 
Tides and Currents Weather Stations Pressure Air Temp Water Temp Dewpoint Dewpoint Depression Visibility Wind Speed Wind Dir Waves Ship Positions

Reid Mcallister

Owner: McAllister Brothers, LLC, Staten Island, NY. More information available from US FCC via Universal Licensing System and Coast Guard Vessel Documentation Center.

Last reported at 2018-May-25 14:30 UTC. Time now 2018-May-25 14:56 UTC.
Position N 39°54' W 075°12'.

Length 24 m; draft 3.1 m.

Type: Other ship. MMSI: 367379670.

Date/timePositionNaut miles runAvg speedWind from/ knotsBaromVisibWave heightAir tempDewpointWater temp
2018-May-25 14:30N 39°54' W 075°12'0 0.0
2018-May-25 14:00N 39°54' W 075°12'0 0.0
2018-May-25 13:30N 39°54' W 075°12'0 0.0
2018-May-25 13:00N 39°54' W 075°12'0 0.0
2018-May-25 12:30N 39°54' W 075°12'0 0.0
2018-May-25 12:00N 39°54' W 075°12'2 4.6
2018-May-25 11:30N 39°53' W 075°09'4 7.3
2018-May-25 11:01N 39°57' W 075°08'5 9.0
2018-May-25 10:30N 39°60' W 075°04'5 9.8
2018-May-25 10:01N 40°03' W 074°59'510.1
2018-May-25 09:31N 40°05' W 074°53'4 8.3
2018-May-25 09:00N 40°08' W 074°49'3 5.7
2018-May-25 08:30N 40°08' W 074°45'0 0.4
2018-May-25 08:00N 40°08' W 074°45'0 0.3
2018-May-25 07:30N 40°08' W 074°45'0 0.0
2018-May-25 07:00N 40°08' W 074°45'0 0.0
2018-May-25 06:30N 40°08' W 074°45'0 0.0
2018-May-25 02:27N 40°08' W 074°45'3 7.3
2018-May-25 02:00N 40°08' W 074°49'4 8.7
2018-May-25 01:30N 40°05' W 074°54'510.9
2018-May-25 01:00N 40°02' W 074°60'510.1
2018-May-25 00:31N 39°59' W 075°05'0 0.5
2018-May-25 00:00N 39°59' W 075°05'1 1.5
2018-May-24 23:31N 39°58' W 075°06'1 1.1
2018-May-24 23:00N 39°59' W 075°05'0 0.2
2018-May-24 22:30N 39°59' W 075°05'0 0.9
2018-May-24 22:00N 39°59' W 075°06'3 5.8
2018-May-24 21:30N 39°56' W 075°08'2 4.1
2018-May-24 21:00N 39°54' W 075°08'0 0.2
2018-May-24 20:31N 39°54' W 075°08'0 0.2
2018-May-24 20:00N 39°54' W 075°08'3 6.0
2018-May-24 19:29N 39°53' W 075°11'1 1.8
2018-May-24 19:00N 39°54' W 075°12'0 0.0
2018-May-24 18:31N 39°54' W 075°12'0 0.0
2018-May-24 18:00N 39°54' W 075°12'0 0.0
2018-May-24 17:30N 39°54' W 075°12'1 1.8
2018-May-24 17:00N 39°53' W 075°12'3 6.9
2018-May-24 16:31N 39°51' W 075°16'4 8.0
2018-May-24 16:01N 39°50' W 075°21'3 6.5
2018-May-24 15:30N 39°49' W 075°24'0 0.0
2018-May-24 15:00N 39°49' W 075°24'0 0.8
2018-May-24 14:30N 39°48' W 075°25'0 0.6
2018-May-24 14:00N 39°48' W 075°25'0 0.2
2018-May-24 13:30N 39°48' W 075°25'8 1.7
2018-May-24 09:00N 39°51' W 075°16'0 0.0
2018-May-24 08:30N 39°51' W 075°16'0 0.0
2018-May-24 08:00N 39°51' W 075°16'2 3.1
2018-May-24 07:30N 39°52' W 075°14'1 1.5
2018-May-24 07:00N 39°52' W 075°13'2 4.5
2018-May-24 06:30N 39°51' W 075°16'0 0.0
2018-May-24 06:00N 39°51' W 075°16'0 0.0
2018-May-24 05:30N 39°51' W 075°16'0 0.0
2018-May-24 04:57N 39°51' W 075°16'0 0.0
2018-May-24 04:30N 39°51' W 075°16'0 0.4
2018-May-24 04:00N 39°51' W 075°16'4 8.5
2018-May-24 03:30N 39°54' W 075°12'0 0.2
2018-May-24 02:40N 39°54' W 075°12'0 0.0
2018-May-24 02:30N 39°54' W 075°12'0 0.0
2018-May-24 02:01N 39°54' W 075°12'0 0.0
2018-May-24 01:30N 39°54' W 075°12'0 0.0
2018-May-24 01:01N 39°54' W 075°12'0 0.0
2018-May-24 00:31N 39°54' W 075°12'0 0.0
2018-May-24 00:00N 39°54' W 075°12'0 0.0
2018-May-23 23:30N 39°54' W 075°12'0 0.0
2018-May-23 23:00N 39°54' W 075°12'0 0.0
2018-May-23 22:30N 39°54' W 075°12'0 0.0
2018-May-23 22:00N 39°54' W 075°12'0 0.0
2018-May-23 21:31N 39°54' W 075°12'0 0.0
2018-May-23 21:01N 39°54' W 075°12'0 0.0
2018-May-23 20:30N 39°54' W 075°12'0 0.6
2018-May-23 20:00N 39°54' W 075°12'2 3.7
2018-May-23 19:30N 39°53' W 075°09'5 9.4
2018-May-23 19:00N 39°58' W 075°08'2 4.6
2018-May-23 18:30N 39°59' W 075°05'0 0.1
2018-May-23 18:00N 39°59' W 075°05'1 1.7
2018-May-23 17:30N 39°58' W 075°06'3 6.4
2018-May-23 17:00N 39°55' W 075°08'3 6.6
2018-May-23 16:31N 39°53' W 075°11'1 2.4
2018-May-23 16:00N 39°54' W 075°12'0 0.0
2018-May-23 15:31N 39°54' W 075°12'0 0.0
2018-May-23 15:00N 39°54' W 075°12'0 0.0
2018-May-23 14:30N 39°54' W 075°12'0 0.0
2018-May-23 14:00N 39°54' W 075°12'0 0.0
2018-May-23 13:30N 39°54' W 075°12'0 0.0
2018-May-23 13:00N 39°54' W 075°12'0 0.0
2018-May-23 01:00N 39°54' W 075°12'0 0.0
2018-May-23 00:30N 39°54' W 075°12'2 4.0
2018-May-23 00:00N 39°52' W 075°13'0 0.0
2018-May-22 23:31N 39°52' W 075°13'0 0.0
2018-May-22 23:01N 39°52' W 075°13'1 1.4
2018-May-22 22:30N 39°52' W 075°14'1 2.9
2018-May-22 22:00N 39°52' W 075°12'4 7.9
2018-May-22 21:29N 39°55' W 075°08'3 7.1
2018-May-22 21:00N 39°58' W 075°07'1 2.7
2018-May-22 20:31N 39°59' W 075°06'0 1.0
2018-May-22 20:00N 39°59' W 075°05'0 0.0
2018-May-22 19:30N 39°59' W 075°05'0 0.0
2018-May-22 19:00N 39°59' W 075°05'0 0.0
2018-May-22 18:30N 39°59' W 075°05'0 0.0
2018-May-22 18:00N 39°59' W 075°05'0 0.0
2018-May-22 17:31N 39°59' W 075°05'0 0.0
2018-May-22 17:01N 39°59' W 075°05'0 0.0
2018-May-22 16:30N 39°59' W 075°05'0 0.0
2018-May-22 16:00N 39°59' W 075°05'0 0.0
2018-May-22 15:30N 39°59' W 075°05'0 0.0
2018-May-22 15:00N 39°59' W 075°05'0 0.0
2018-May-22 14:30N 39°59' W 075°05'0 0.0
2018-May-22 14:00N 39°59' W 075°05'0 0.0
2018-May-22 13:30N 39°59' W 075°05'1 1.5
2018-May-22 13:00N 39°59' W 075°06'2 3.4
2018-May-22 12:30N 39°58' W 075°08'1 1.4
2018-May-22 12:01N 39°57' W 075°08'2 3.9
2018-May-22 11:30N 39°58' W 075°06'4 7.5
2018-May-22 11:01N 39°55' W 075°08'4 7.6
2018-May-22 10:30N 39°53' W 075°12'0 0.9
2018-May-22 10:01N 39°53' W 075°11'3 5.5
2018-May-22 09:30N 39°54' W 075°08'0 0.4
2018-May-22 09:00N 39°54' W 075°08'0 0.7
2018-May-22 08:30N 39°54' W 075°08'0 0.0
2018-May-22 08:00N 39°54' W 075°08'0 0.3
2018-May-22 07:31N 39°54' W 075°08'0 0.4
2018-May-22 07:00N 39°54' W 075°08'1 2.2
2018-May-22 06:30N 39°53' W 075°09'0 0.6
2018-May-22 06:00N 39°53' W 075°09'2 4.9
2018-May-22 05:30N 39°54' W 075°12'0 0.0
2018-May-22 05:00N 39°54' W 075°12'0 0.0
2018-May-22 04:30N 39°54' W 075°12'0 0.0
2018-May-22 04:00N 39°54' W 075°12'0 0.0
2018-May-22 03:30N 39°54' W 075°12'0 0.0
2018-May-22 03:00N 39°54' W 075°12'0 0.0
2018-May-22 02:30N 39°54' W 075°12'0 0.0
2018-May-22 02:00N 39°54' W 075°12'0 0.0
2018-May-22 01:30N 39°54' W 075°12'2 3.7
2018-May-22 01:00N 39°53' W 075°10'2 3.6
2018-May-22 00:31N 39°54' W 075°08'0 0.8
2018-May-22 00:00N 39°54' W 075°08'2 4.3
2018-May-21 23:30N 39°53' W 075°11'3 5.9
2018-May-21 23:00N 39°51' W 075°14'1 2.9
2018-May-21 22:30N 39°51' W 075°16'0 0.0
2018-May-21 22:01N 39°51' W 075°16'0 0.6
2018-May-21 21:30N 39°51' W 075°15'0 1.0
2018-May-21 21:00N 39°51' W 075°15'3 6.8
2018-May-21 20:31N 39°54' W 075°12'0 0.0
2018-May-21 20:01N 39°54' W 075°12'0 0.0
2018-May-21 19:30N 39°54' W 075°12'0 0.0
2018-May-21 19:00N 39°54' W 075°12'0 0.0
2018-May-21 18:31N 39°54' W 075°12'0 0.0
2018-May-21 18:00N 39°54' W 075°12'0 0.0
2018-May-21 17:30N 39°54' W 075°12'0 0.0
2018-May-21 17:00N 39°54' W 075°12'0 0.0
2018-May-21 16:30N 39°54' W 075°12'0 0.0
2018-May-21 16:00N 39°54' W 075°12'0 0.0
2018-May-21 15:30N 39°54' W 075°12'0 0.0
2018-May-21 15:01N 39°54' W 075°12'0 0.0
2018-May-21 14:31N 39°54' W 075°12'0 0.0
2018-May-21 14:00N 39°54' W 075°12'0 0.0
2018-May-21 13:30N 39°54' W 075°12'0 0.0
2018-May-21 13:01N 39°54' W 075°12'0 0.0
2018-May-21 12:30N 39°54' W 075°12'0 0.0
2018-May-21 12:00N 39°54' W 075°12'1 2.5
2018-May-21 11:30N 39°53' W 075°12'3 6.8
2018-May-21 11:00N 39°51' W 075°16'0 0.1
2018-May-21 10:30N 39°51' W 075°16'0 0.0
2018-May-21 10:00N 39°51' W 075°16'0 0.0
2018-May-21 09:30N 39°51' W 075°16'1 1.8
2018-May-21 09:01N 39°51' W 075°17'612.1
2018-May-21 08:30N 39°49' W 075°25'1 1.8
2018-May-21 08:00N 39°49' W 075°23'1 1.1
2018-May-21 07:30N 39°49' W 075°24'1 1.7
2018-May-21 07:00N 39°48' W 075°25'2 4.2
2018-May-21 06:30N 39°50' W 075°23'0 0.1
2018-May-21 06:00N 39°50' W 075°23'0 0.0
2018-May-21 05:30N 39°50' W 075°23'0 0.0
2018-May-21 05:00N 39°50' W 075°23'0 0.0
2018-May-21 04:30N 39°50' W 075°23'0 0.0
2018-May-21 04:00N 39°50' W 075°23'0 0.2
2018-May-21 03:30N 39°50' W 075°23'612.3
2018-May-21 03:00N 39°51' W 075°15'612.2
2018-May-21 02:31N 39°54' W 075°08'2 4.9
2018-May-21 02:00N 39°56' W 075°08'2 4.3
2018-May-21 01:30N 39°54' W 075°08'3 6.0
2018-May-21 01:01N 39°54' W 075°12'0 0.0
2018-May-21 00:30N 39°54' W 075°12'0 0.0
2018-May-21 00:00N 39°54' W 075°12'0 0.0
2018-May-20 23:31N 39°54' W 075°12'0 0.0
2018-May-20 23:00N 39°54' W 075°12'0 0.0
2018-May-20 22:31N 39°54' W 075°12'0 0.0
2018-May-20 22:00N 39°54' W 075°12'0 0.0
2018-May-20 21:30N 39°54' W 075°12'2 3.2
2018-May-20 21:00N 39°52' W 075°13'3 6.0
2018-May-20 20:31N 39°51' W 075°16'0 0.0
2018-May-20 20:00N 39°51' W 075°16'2 3.7
2018-May-20 19:31N 39°52' W 075°14'3 5.2
2018-May-20 19:00N 39°54' W 075°12'0 0.0
2018-May-20 18:30N 39°54' W 075°12'0 0.0
2018-May-20 18:01N 39°54' W 075°12'0 0.0
2018-May-20 17:30N 39°54' W 075°12'0 0.0
2018-May-20 17:00N 39°54' W 075°12'0 0.0
2018-May-20 16:29N 39°54' W 075°12'0 0.0
2018-May-20 16:00N 39°54' W 075°12'0 0.0
2018-May-20 15:30N 39°54' W 075°12'0 0.0
2018-May-20 15:00N 39°54' W 075°12'0 0.0
2018-May-20 14:30N 39°54' W 075°12'0 0.0
2018-May-20 14:00N 39°54' W 075°12'0 0.0
2018-May-20 13:30N 39°54' W 075°12'0 0.0
2018-May-20 13:00N 39°54' W 075°12'0 0.0
2018-May-20 12:30N 39°54' W 075°12'0 0.0
2018-May-20 12:00N 39°54' W 075°12'0 0.0
2018-May-20 11:30N 39°54' W 075°12'0 0.0
2018-May-20 11:00N 39°54' W 075°12'0 0.0
2018-May-20 10:30N 39°54' W 075°12'0 0.0
2018-May-20 10:00N 39°54' W 075°12'0 0.0
2018-May-20 09:30N 39°54' W 075°12'0 0.0
2018-May-20 09:00N 39°54' W 075°12'0 0.0
2018-May-20 08:30N 39°54' W 075°12'0 0.0
2018-May-20 08:00N 39°54' W 075°12'0 0.0
2018-May-20 07:30N 39°54' W 075°12'0 0.0
2018-May-20 07:00N 39°54' W 075°12'0 0.0
2018-May-20 06:30N 39°54' W 075°12'0 0.0
2018-May-20 06:00N 39°54' W 075°12'0 0.0
2018-May-20 05:30N 39°54' W 075°12'0 0.0
2018-May-20 05:00N 39°54' W 075°12'0 0.0
2018-May-20 04:30N 39°54' W 075°12'0 0.0
2018-May-20 04:00N 39°54' W 075°12'0 0.0
2018-May-20 03:30N 39°54' W 075°12'0 0.0
2018-May-20 03:01N 39°54' W 075°12'0 0.0
2018-May-20 02:30N 39°54' W 075°12'0 0.0
2018-May-20 02:00N 39°54' W 075°12'0 0.0
2018-May-20 01:30N 39°54' W 075°12'0 0.0
2018-May-20 01:00N 39°54' W 075°12'3 6.0
2018-May-20 00:30N 39°54' W 075°08'0 0.2
2018-May-20 00:01N 39°54' W 075°08'2 3.9
2018-May-19 23:30N 39°53' W 075°10'0 0.2
2018-May-19 23:00N 39°53' W 075°10'2 3.0
2018-May-19 22:31N 39°54' W 075°08'0 0.0
2018-May-19 22:00N 39°54' W 075°08'0 0.5
2018-May-19 21:30N 39°54' W 075°08'0 0.5
2018-May-19 21:00N 39°54' W 075°08'0 0.0
2018-May-19 20:30N 39°54' W 075°08'0 0.0
2018-May-19 20:00N 39°54' W 075°08'0 0.0
2018-May-19 19:30N 39°54' W 075°08'0 0.0
2018-May-19 19:01N 39°54' W 075°08'0 0.0
2018-May-19 18:30N 39°54' W 075°08'0 0.0
2018-May-19 18:00N 39°54' W 075°08'0 0.0
2018-May-19 17:30N 39°54' W 075°08'0 0.0
2018-May-19 17:00N 39°54' W 075°08'0 0.7
2018-May-19 16:30N 39°54' W 075°08'2 3.3
2018-May-19 16:00N 39°53' W 075°09'1 2.6
2018-May-19 15:30N 39°54' W 075°08'0 0.9
2018-May-19 15:00N 39°54' W 075°08'0 0.3
2018-May-19 14:30N 39°54' W 075°08'1 1.8
2018-May-19 14:01N 39°53' W 075°08'3 5.3
2018-May-19 13:30N 39°54' W 075°12'0 0.0
2018-May-19 13:01N 39°54' W 075°12'0 0.0
2018-May-19 12:30N 39°54' W 075°12'0 0.0
2018-May-19 12:00N 39°54' W 075°12'0 0.0
2018-May-19 11:30N 39°54' W 075°12'0 0.0
2018-May-19 11:01N 39°54' W 075°12'1 2.8
2018-May-19 10:30N 39°53' W 075°10'4 8.9
2018-May-19 10:00N 39°57' W 075°08'2 4.7
2018-May-19 09:30N 39°59' W 075°06'3 6.4
2018-May-19 09:00N 39°56' W 075°08'4 7.4
2018-May-19 08:30N 39°53' W 075°11'1 1.8
2018-May-19 08:00N 39°54' W 075°12'0 0.0
2018-May-19 07:30N 39°54' W 075°12'0 0.0
2018-May-19 07:01N 39°54' W 075°12'0 0.0
2018-May-19 06:30N 39°54' W 075°12'0 0.0
2018-May-19 06:00N 39°54' W 075°12'0 0.0
2018-May-19 05:30N 39°54' W 075°12'0 0.0
2018-May-19 05:01N 39°54' W 075°12'0 0.0
2018-May-19 04:30N 39°54' W 075°12'0 0.0
2018-May-19 04:00N 39°54' W 075°12'0 0.0
2018-May-19 03:30N 39°54' W 075°12'0 0.0
2018-May-19 03:00N 39°54' W 075°12'0 0.0
2018-May-19 02:30N 39°54' W 075°12'0 0.0
2018-May-19 02:00N 39°54' W 075°12'0 0.0
2018-May-19 01:30N 39°54' W 075°12'0 0.0
2018-May-19 01:00N 39°54' W 075°12'0 0.0
2018-May-19 00:30N 39°54' W 075°12'0 0.0
2018-May-19 00:00N 39°54' W 075°12'0 0.0
2018-May-18 23:30N 39°54' W 075°12'0 0.0
2018-May-18 23:00N 39°54' W 075°12'0 0.0
2018-May-18 22:30N 39°54' W 075°12'0 0.0
2018-May-18 22:01N 39°54' W 075°12'0 0.0
2018-May-18 21:31N 39°54' W 075°12'0 0.0
2018-May-18 21:00N 39°54' W 075°12'0 0.0
2018-May-18 20:29N 39°54' W 075°12'0 0.6
2018-May-18 20:00N 39°54' W 075°12'0 0.0
2018-May-18 19:31N 39°54' W 075°12'0 0.0
2018-May-18 19:00N 39°54' W 075°12'0 0.0
2018-May-18 18:30N 39°54' W 075°12'0 0.6
2018-May-18 18:00N 39°54' W 075°12'0 0.0
2018-May-18 17:31N 39°54' W 075°12'0 0.0
2018-May-18 17:00N 39°54' W 075°12'0 0.0
2018-May-18 16:30N 39°54' W 075°12'0 0.0
2018-May-18 16:00N 39°54' W 075°12'0 0.0
2018-May-18 15:30N 39°54' W 075°12'0 0.0
2018-May-18 15:00N 39°54' W 075°12'0 0.0
2018-May-18 14:30N 39°54' W 075°12'2 3.9
2018-May-18 14:00N 39°52' W 075°13'4 8.4
2018-May-18 13:30N 39°51' W 075°18'4 8.3
2018-May-18 13:00N 39°49' W 075°23'4 8.6
2018-May-18 12:30N 39°47' W 075°28'4 8.8
2018-May-18 12:00N 39°43' W 075°30'4 8.4
2018-May-18 11:30N 39°39' W 075°33'4 7.2
2018-May-18 11:00N 39°36' W 075°34'3 5.3
2018-May-18 10:30N 39°33' W 075°36'4 8.5
2018-May-18 10:00N 39°33' W 075°41'4 8.4
2018-May-18 09:30N 39°32' W 075°47'4 8.0
2018-May-18 09:00N 39°32' W 075°52'4 8.1
2018-May-18 08:30N 39°30' W 075°56'4 8.5
2018-May-18 08:00N 39°27' W 075°60'4 8.3
2018-May-18 07:30N 39°24' W 076°04'4 7.6
2018-May-18 07:00N 39°22' W 076°08'5 7.2
2018-May-18 06:17N 39°18' W 076°13'2 7.5
2018-May-18 05:59N 39°16' W 076°14'12 6.1
2018-May-18 04:00N 39°11' W 076°29'4 8.3
2018-May-18 03:30N 39°14' W 076°33'3 5.6
2018-May-18 03:00N 39°16' W 076°35'0 0.1
2018-May-18 02:30N 39°16' W 076°35'0 0.0
2018-May-18 02:00N 39°16' W 076°35'0 0.1
2018-May-18 01:30N 39°16' W 076°35'0 0.0
2018-May-18 01:00N 39°16' W 076°35'0 0.0
2018-May-18 00:30N 39°16' W 076°35'0 0.0
2018-May-18 00:00N 39°16' W 076°35'0 0.0
2018-May-17 23:30N 39°16' W 076°35'1 1.6
2018-May-17 23:00N 39°17' W 076°36'1 1.5
2018-May-17 22:30N 39°16' W 076°35'1 1.8
2018-May-17 22:00N 39°16' W 076°36'0 0.0
2018-May-17 21:30N 39°16' W 076°36'0 0.0
2018-May-17 21:00N 39°16' W 076°36'0 0.0
2018-May-17 20:30N 39°16' W 076°36'0 0.0
2018-May-17 20:00N 39°16' W 076°36'0 0.0
2018-May-17 19:30N 39°16' W 076°36'0 0.0
2018-May-17 19:00N 39°16' W 076°36'  
Track history (hours):
 
Tides and Currents Weather Stations Pressure Air Temp Water Temp Dewpoint Dewpoint Depression Visibility Wind Speed Wind Dir Waves Ship Positions

Reid Mcallister

Owner: McAllister Brothers, LLC, Staten Island, NY. More information available from US FCC via Universal Licensing System and Coast Guard Vessel Documentation Center.

Last reported at 2018-May-25 14:30 UTC. Time now 2018-May-25 14:56 UTC.
Position N 39°54' W 075°12'.

Length 24 m; draft 3.1 m.

Type: Other ship. MMSI: 367379670.

Date/timePositionNaut miles runAvg speedWind from/ knotsBaromVisibWave heightAir tempDewpointWater temp
2018-May-25 14:30N 39°54' W 075°12'0 0.0
2018-May-25 14:00N 39°54' W 075°12'0 0.0
2018-May-25 13:30N 39°54' W 075°12'0 0.0
2018-May-25 13:00N 39°54' W 075°12'0 0.0
2018-May-25 12:30N 39°54' W 075°12'0 0.0
2018-May-25 12:00N 39°54' W 075°12'2 4.6
2018-May-25 11:30N 39°53' W 075°09'4 7.3
2018-May-25 11:01N 39°57' W 075°08'5 9.0
2018-May-25 10:30N 39°60' W 075°04'5 9.8
2018-May-25 10:01N 40°03' W 074°59'510.1
2018-May-25 09:31N 40°05' W 074°53'4 8.3
2018-May-25 09:00N 40°08' W 074°49'3 5.7
2018-May-25 08:30N 40°08' W 074°45'0 0.4
2018-May-25 08:00N 40°08' W 074°45'0 0.3
2018-May-25 07:30N 40°08' W 074°45'0 0.0
2018-May-25 07:00N 40°08' W 074°45'0 0.0
2018-May-25 06:30N 40°08' W 074°45'0 0.0
2018-May-25 02:27N 40°08' W 074°45'3 7.3
2018-May-25 02:00N 40°08' W 074°49'4 8.7
2018-May-25 01:30N 40°05' W 074°54'510.9
2018-May-25 01:00N 40°02' W 074°60'510.1
2018-May-25 00:31N 39°59' W 075°05'0 0.5
2018-May-25 00:00N 39°59' W 075°05'1 1.5
2018-May-24 23:31N 39°58' W 075°06'1 1.1
2018-May-24 23:00N 39°59' W 075°05'0 0.2
2018-May-24 22:30N 39°59' W 075°05'0 0.9
2018-May-24 22:00N 39°59' W 075°06'3 5.8
2018-May-24 21:30N 39°56' W 075°08'2 4.1
2018-May-24 21:00N 39°54' W 075°08'0 0.2
2018-May-24 20:31N 39°54' W 075°08'0 0.2
2018-May-24 20:00N 39°54' W 075°08'3 6.0
2018-May-24 19:29N 39°53' W 075°11'1 1.8
2018-May-24 19:00N 39°54' W 075°12'0 0.0
2018-May-24 18:31N 39°54' W 075°12'0 0.0
2018-May-24 18:00N 39°54' W 075°12'0 0.0
2018-May-24 17:30N 39°54' W 075°12'1 1.8
2018-May-24 17:00N 39°53' W 075°12'3 6.9
2018-May-24 16:31N 39°51' W 075°16'4 8.0
2018-May-24 16:01N 39°50' W 075°21'3 6.5
2018-May-24 15:30N 39°49' W 075°24'0 0.0
2018-May-24 15:00N 39°49' W 075°24'0 0.8
2018-May-24 14:30N 39°48' W 075°25'0 0.6
2018-May-24 14:00N 39°48' W 075°25'0 0.2
2018-May-24 13:30N 39°48' W 075°25'8 1.7
2018-May-24 09:00N 39°51' W 075°16'0 0.0
2018-May-24 08:30N 39°51' W 075°16'0 0.0
2018-May-24 08:00N 39°51' W 075°16'2 3.1
2018-May-24 07:30N 39°52' W 075°14'1 1.5
2018-May-24 07:00N 39°52' W 075°13'2 4.5
2018-May-24 06:30N 39°51' W 075°16'0 0.0
2018-May-24 06:00N 39°51' W 075°16'0 0.0
2018-May-24 05:30N 39°51' W 075°16'0 0.0
2018-May-24 04:57N 39°51' W 075°16'0 0.0
2018-May-24 04:30N 39°51' W 075°16'0 0.4
2018-May-24 04:00N 39°51' W 075°16'4 8.5
2018-May-24 03:30N 39°54' W 075°12'0 0.2
2018-May-24 02:40N 39°54' W 075°12'0 0.0
2018-May-24 02:30N 39°54' W 075°12'0 0.0
2018-May-24 02:01N 39°54' W 075°12'0 0.0
2018-May-24 01:30N 39°54' W 075°12'0 0.0
2018-May-24 01:01N 39°54' W 075°12'0 0.0
2018-May-24 00:31N 39°54' W 075°12'0 0.0
2018-May-24 00:00N 39°54' W 075°12'0 0.0
2018-May-23 23:30N 39°54' W 075°12'0 0.0
2018-May-23 23:00N 39°54' W 075°12'0 0.0
2018-May-23 22:30N 39°54' W 075°12'0 0.0
2018-May-23 22:00N 39°54' W 075°12'0 0.0
2018-May-23 21:31N 39°54' W 075°12'0 0.0
2018-May-23 21:01N 39°54' W 075°12'0 0.0
2018-May-23 20:30N 39°54' W 075°12'0 0.6
2018-May-23 20:00N 39°54' W 075°12'2 3.7
2018-May-23 19:30N 39°53' W 075°09'5 9.4
2018-May-23 19:00N 39°58' W 075°08'2 4.6
2018-May-23 18:30N 39°59' W 075°05'0 0.1
2018-May-23 18:00N 39°59' W 075°05'1 1.7
2018-May-23 17:30N 39°58' W 075°06'3 6.4
2018-May-23 17:00N 39°55' W 075°08'3 6.6
2018-May-23 16:31N 39°53' W 075°11'1 2.4
2018-May-23 16:00N 39°54' W 075°12'0 0.0
2018-May-23 15:31N 39°54' W 075°12'0 0.0
2018-May-23 15:00N 39°54' W 075°12'0 0.0
2018-May-23 14:30N 39°54' W 075°12'0 0.0
2018-May-23 14:00N 39°54' W 075°12'0 0.0
2018-May-23 13:30N 39°54' W 075°12'0 0.0
2018-May-23 13:00N 39°54' W 075°12'0 0.0
2018-May-23 01:00N 39°54' W 075°12'0 0.0
2018-May-23 00:30N 39°54' W 075°12'2 4.0
2018-May-23 00:00N 39°52' W 075°13'0 0.0
2018-May-22 23:31N 39°52' W 075°13'0 0.0
2018-May-22 23:01N 39°52' W 075°13'1 1.4
2018-May-22 22:30N 39°52' W 075°14'1 2.9
2018-May-22 22:00N 39°52' W 075°12'4 7.9
2018-May-22 21:29N 39°55' W 075°08'3 7.1
2018-May-22 21:00N 39°58' W 075°07'1 2.7
2018-May-22 20:31N 39°59' W 075°06'0 1.0
2018-May-22 20:00N 39°59' W 075°05'0 0.0
2018-May-22 19:30N 39°59' W 075°05'0 0.0
2018-May-22 19:00N 39°59' W 075°05'0 0.0
2018-May-22 18:30N 39°59' W 075°05'0 0.0
2018-May-22 18:00N 39°59' W 075°05'0 0.0
2018-May-22 17:31N 39°59' W 075°05'0 0.0
2018-May-22 17:01N 39°59' W 075°05'0 0.0
2018-May-22 16:30N 39°59' W 075°05'0 0.0
2018-May-22 16:00N 39°59' W 075°05'0 0.0
2018-May-22 15:30N 39°59' W 075°05'0 0.0
2018-May-22 15:00N 39°59' W 075°05'0 0.0
2018-May-22 14:30N 39°59' W 075°05'0 0.0
2018-May-22 14:00N 39°59' W 075°05'0 0.0
2018-May-22 13:30N 39°59' W 075°05'1 1.5
2018-May-22 13:00N 39°59' W 075°06'2 3.4
2018-May-22 12:30N 39°58' W 075°08'1 1.4
2018-May-22 12:01N 39°57' W 075°08'2 3.9
2018-May-22 11:30N 39°58' W 075°06'4 7.5
2018-May-22 11:01N 39°55' W 075°08'4 7.6
2018-May-22 10:30N 39°53' W 075°12'0 0.9
2018-May-22 10:01N 39°53' W 075°11'3 5.5
2018-May-22 09:30N 39°54' W 075°08'0 0.4
2018-May-22 09:00N 39°54' W 075°08'0 0.7
2018-May-22 08:30N 39°54' W 075°08'0 0.0
2018-May-22 08:00N 39°54' W 075°08'0 0.3
2018-May-22 07:31N 39°54' W 075°08'0 0.4
2018-May-22 07:00N 39°54' W 075°08'1 2.2
2018-May-22 06:30N 39°53' W 075°09'0 0.6
2018-May-22 06:00N 39°53' W 075°09'2 4.9
2018-May-22 05:30N 39°54' W 075°12'0 0.0
2018-May-22 05:00N 39°54' W 075°12'0 0.0
2018-May-22 04:30N 39°54' W 075°12'0 0.0
2018-May-22 04:00N 39°54' W 075°12'0 0.0
2018-May-22 03:30N 39°54' W 075°12'0 0.0
2018-May-22 03:00N 39°54' W 075°12'0 0.0
2018-May-22 02:30N 39°54' W 075°12'0 0.0
2018-May-22 02:00N 39°54' W 075°12'0 0.0
2018-May-22 01:30N 39°54' W 075°12'2 3.7
2018-May-22 01:00N 39°53' W 075°10'2 3.6
2018-May-22 00:31N 39°54' W 075°08'0 0.8
2018-May-22 00:00N 39°54' W 075°08'2 4.3
2018-May-21 23:30N 39°53' W 075°11'3 5.9
2018-May-21 23:00N 39°51' W 075°14'1 2.9
2018-May-21 22:30N 39°51' W 075°16'0 0.0
2018-May-21 22:01N 39°51' W 075°16'0 0.6
2018-May-21 21:30N 39°51' W 075°15'0 1.0
2018-May-21 21:00N 39°51' W 075°15'3 6.8
2018-May-21 20:31N 39°54' W 075°12'0 0.0
2018-May-21 20:01N 39°54' W 075°12'0 0.0
2018-May-21 19:30N 39°54' W 075°12'0 0.0
2018-May-21 19:00N 39°54' W 075°12'0 0.0
2018-May-21 18:31N 39°54' W 075°12'0 0.0
2018-May-21 18:00N 39°54' W 075°12'0 0.0
2018-May-21 17:30N 39°54' W 075°12'0 0.0
2018-May-21 17:00N 39°54' W 075°12'0 0.0
2018-May-21 16:30N 39°54' W 075°12'0 0.0
2018-May-21 16:00N 39°54' W 075°12'0 0.0
2018-May-21 15:30N 39°54' W 075°12'0 0.0
2018-May-21 15:01N 39°54' W 075°12'0 0.0
2018-May-21 14:31N 39°54' W 075°12'0 0.0
2018-May-21 14:00N 39°54' W 075°12'0 0.0
2018-May-21 13:30N 39°54' W 075°12'0 0.0
2018-May-21 13:01N 39°54' W 075°12'0 0.0
2018-May-21 12:30N 39°54' W 075°12'0 0.0
2018-May-21 12:00N 39°54' W 075°12'1 2.5
2018-May-21 11:30N 39°53' W 075°12'3 6.8
2018-May-21 11:00N 39°51' W 075°16'0 0.1
2018-May-21 10:30N 39°51' W 075°16'0 0.0
2018-May-21 10:00N 39°51' W 075°16'0 0.0
2018-May-21 09:30N 39°51' W 075°16'1 1.8
2018-May-21 09:01N 39°51' W 075°17'612.1
2018-May-21 08:30N 39°49' W 075°25'1 1.8
2018-May-21 08:00N 39°49' W 075°23'1 1.1
2018-May-21 07:30N 39°49' W 075°24'1 1.7
2018-May-21 07:00N 39°48' W 075°25'2 4.2
2018-May-21 06:30N 39°50' W 075°23'0 0.1
2018-May-21 06:00N 39°50' W 075°23'0 0.0
2018-May-21 05:30N 39°50' W 075°23'0 0.0
2018-May-21 05:00N 39°50' W 075°23'0 0.0
2018-May-21 04:30N 39°50' W 075°23'0 0.0
2018-May-21 04:00N 39°50' W 075°23'0 0.2
2018-May-21 03:30N 39°50' W 075°23'612.3
2018-May-21 03:00N 39°51' W 075°15'612.2
2018-May-21 02:31N 39°54' W 075°08'2 4.9
2018-May-21 02:00N 39°56' W 075°08'2 4.3
2018-May-21 01:30N 39°54' W 075°08'3 6.0
2018-May-21 01:01N 39°54' W 075°12'0 0.0
2018-May-21 00:30N 39°54' W 075°12'0 0.0
2018-May-21 00:00N 39°54' W 075°12'0 0.0
2018-May-20 23:31N 39°54' W 075°12'0 0.0
2018-May-20 23:00N 39°54' W 075°12'0 0.0
2018-May-20 22:31N 39°54' W 075°12'0 0.0
2018-May-20 22:00N 39°54' W 075°12'0 0.0
2018-May-20 21:30N 39°54' W 075°12'2 3.2
2018-May-20 21:00N 39°52' W 075°13'3 6.0
2018-May-20 20:31N 39°51' W 075°16'0 0.0
2018-May-20 20:00N 39°51' W 075°16'2 3.7
2018-May-20 19:31N 39°52' W 075°14'3 5.2
2018-May-20 19:00N 39°54' W 075°12'0 0.0
2018-May-20 18:30N 39°54' W 075°12'0 0.0
2018-May-20 18:01N 39°54' W 075°12'0 0.0
2018-May-20 17:30N 39°54' W 075°12'0 0.0
2018-May-20 17:00N 39°54' W 075°12'0 0.0
2018-May-20 16:29N 39°54' W 075°12'0 0.0
2018-May-20 16:00N 39°54' W 075°12'0 0.0
2018-May-20 15:30N 39°54' W 075°12'0 0.0
2018-May-20 15:00N 39°54' W 075°12'0 0.0
2018-May-20 14:30N 39°54' W 075°12'0 0.0
2018-May-20 14:00N 39°54' W 075°12'0 0.0
2018-May-20 13:30N 39°54' W 075°12'0 0.0
2018-May-20 13:00N 39°54' W 075°12'0 0.0
2018-May-20 12:30N 39°54' W 075°12'0 0.0
2018-May-20 12:00N 39°54' W 075°12'0 0.0
2018-May-20 11:30N 39°54' W 075°12'0 0.0
2018-May-20 11:00N 39°54' W 075°12'0 0.0
2018-May-20 10:30N 39°54' W 075°12'0 0.0
2018-May-20 10:00N 39°54' W 075°12'0 0.0
2018-May-20 09:30N 39°54' W 075°12'0 0.0
2018-May-20 09:00N 39°54' W 075°12'0 0.0
2018-May-20 08:30N 39°54' W 075°12'0 0.0
2018-May-20 08:00N 39°54' W 075°12'0 0.0
2018-May-20 07:30N 39°54' W 075°12'0 0.0
2018-May-20 07:00N 39°54' W 075°12'0 0.0
2018-May-20 06:30N 39°54' W 075°12'0 0.0
2018-May-20 06:00N 39°54' W 075°12'0 0.0
2018-May-20 05:30N 39°54' W 075°12'0 0.0
2018-May-20 05:00N 39°54' W 075°12'0 0.0
2018-May-20 04:30N 39°54' W 075°12'0 0.0
2018-May-20 04:00N 39°54' W 075°12'0 0.0
2018-May-20 03:30N 39°54' W 075°12'0 0.0
2018-May-20 03:01N 39°54' W 075°12'0 0.0
2018-May-20 02:30N 39°54' W 075°12'0 0.0
2018-May-20 02:00N 39°54' W 075°12'0 0.0
2018-May-20 01:30N 39°54' W 075°12'0 0.0
2018-May-20 01:00N 39°54' W 075°12'3 6.0
2018-May-20 00:30N 39°54' W 075°08'0 0.2
2018-May-20 00:01N 39°54' W 075°08'2 3.9
2018-May-19 23:30N 39°53' W 075°10'0 0.2
2018-May-19 23:00N 39°53' W 075°10'2 3.0
2018-May-19 22:31N 39°54' W 075°08'0 0.0
2018-May-19 22:00N 39°54' W 075°08'0 0.5
2018-May-19 21:30N 39°54' W 075°08'0 0.5
2018-May-19 21:00N 39°54' W 075°08'0 0.0
2018-May-19 20:30N 39°54' W 075°08'0 0.0
2018-May-19 20:00N 39°54' W 075°08'0 0.0
2018-May-19 19:30N 39°54' W 075°08'0 0.0
2018-May-19 19:01N 39°54' W 075°08'0 0.0
2018-May-19 18:30N 39°54' W 075°08'0 0.0
2018-May-19 18:00N 39°54' W 075°08'0 0.0
2018-May-19 17:30N 39°54' W 075°08'0 0.0
2018-May-19 17:00N 39°54' W 075°08'0 0.7
2018-May-19 16:30N 39°54' W 075°08'2 3.3
2018-May-19 16:00N 39°53' W 075°09'1 2.6
2018-May-19 15:30N 39°54' W 075°08'0 0.9
2018-May-19 15:00N 39°54' W 075°08'0 0.3
2018-May-19 14:30N 39°54' W 075°08'1 1.8
2018-May-19 14:01N 39°53' W 075°08'3 5.3
2018-May-19 13:30N 39°54' W 075°12'0 0.0
2018-May-19 13:01N 39°54' W 075°12'0 0.0
2018-May-19 12:30N 39°54' W 075°12'0 0.0
2018-May-19 12:00N 39°54' W 075°12'0 0.0
2018-May-19 11:30N 39°54' W 075°12'0 0.0
2018-May-19 11:01N 39°54' W 075°12'1 2.8
2018-May-19 10:30N 39°53' W 075°10'4 8.9
2018-May-19 10:00N 39°57' W 075°08'2 4.7
2018-May-19 09:30N 39°59' W 075°06'3 6.4
2018-May-19 09:00N 39°56' W 075°08'4 7.4
2018-May-19 08:30N 39°53' W 075°11'1 1.8
2018-May-19 08:00N 39°54' W 075°12'0 0.0
2018-May-19 07:30N 39°54' W 075°12'0 0.0
2018-May-19 07:01N 39°54' W 075°12'0 0.0
2018-May-19 06:30N 39°54' W 075°12'0 0.0
2018-May-19 06:00N 39°54' W 075°12'0 0.0
2018-May-19 05:30N 39°54' W 075°12'0 0.0
2018-May-19 05:01N 39°54' W 075°12'0 0.0
2018-May-19 04:30N 39°54' W 075°12'0 0.0
2018-May-19 04:00N 39°54' W 075°12'0 0.0
2018-May-19 03:30N 39°54' W 075°12'0 0.0
2018-May-19 03:00N 39°54' W 075°12'0 0.0
2018-May-19 02:30N 39°54' W 075°12'0 0.0
2018-May-19 02:00N 39°54' W 075°12'0 0.0
2018-May-19 01:30N 39°54' W 075°12'0 0.0
2018-May-19 01:00N 39°54' W 075°12'0 0.0
2018-May-19 00:30N 39°54' W 075°12'0 0.0
2018-May-19 00:00N 39°54' W 075°12'0 0.0
2018-May-18 23:30N 39°54' W 075°12'0 0.0
2018-May-18 23:00N 39°54' W 075°12'0 0.0
2018-May-18 22:30N 39°54' W 075°12'0 0.0
2018-May-18 22:01N 39°54' W 075°12'0 0.0
2018-May-18 21:31N 39°54' W 075°12'0 0.0
2018-May-18 21:00N 39°54' W 075°12'0 0.0
2018-May-18 20:29N 39°54' W 075°12'0 0.6
2018-May-18 20:00N 39°54' W 075°12'0 0.0
2018-May-18 19:31N 39°54' W 075°12'0 0.0
2018-May-18 19:00N 39°54' W 075°12'0 0.0
2018-May-18 18:30N 39°54' W 075°12'0 0.6
2018-May-18 18:00N 39°54' W 075°12'0 0.0
2018-May-18 17:31N 39°54' W 075°12'0 0.0
2018-May-18 17:00N 39°54' W 075°12'0 0.0
2018-May-18 16:30N 39°54' W 075°12'0 0.0
2018-May-18 16:00N 39°54' W 075°12'0 0.0
2018-May-18 15:30N 39°54' W 075°12'0 0.0
2018-May-18 15:00N 39°54' W 075°12'0 0.0
2018-May-18 14:30N 39°54' W 075°12'2 3.9
2018-May-18 14:00N 39°52' W 075°13'4 8.4
2018-May-18 13:30N 39°51' W 075°18'4 8.3
2018-May-18 13:00N 39°49' W 075°23'4 8.6
2018-May-18 12:30N 39°47' W 075°28'4 8.8
2018-May-18 12:00N 39°43' W 075°30'4 8.4
2018-May-18 11:30N 39°39' W 075°33'4 7.2
2018-May-18 11:00N 39°36' W 075°34'3 5.3
2018-May-18 10:30N 39°33' W 075°36'4 8.5
2018-May-18 10:00N 39°33' W 075°41'4 8.4
2018-May-18 09:30N 39°32' W 075°47'4 8.0
2018-May-18 09:00N 39°32' W 075°52'4 8.1
2018-May-18 08:30N 39°30' W 075°56'4 8.5
2018-May-18 08:00N 39°27' W 075°60'4 8.3
2018-May-18 07:30N 39°24' W 076°04'4 7.6
2018-May-18 07:00N 39°22' W 076°08'5 7.2
2018-May-18 06:17N 39°18' W 076°13'2 7.5
2018-May-18 05:59N 39°16' W 076°14'12 6.1
2018-May-18 04:00N 39°11' W 076°29'4 8.3
2018-May-18 03:30N 39°14' W 076°33'3 5.6
2018-May-18 03:00N 39°16' W 076°35'0 0.1
2018-May-18 02:30N 39°16' W 076°35'0 0.0
2018-May-18 02:00N 39°16' W 076°35'0 0.1
2018-May-18 01:30N 39°16' W 076°35'0 0.0
2018-May-18 01:00N 39°16' W 076°35'0 0.0
2018-May-18 00:30N 39°16' W 076°35'0 0.0
2018-May-18 00:00N 39°16' W 076°35'0 0.0
2018-May-17 23:30N 39°16' W 076°35'1 1.6
2018-May-17 23:00N 39°17' W 076°36'1 1.5
2018-May-17 22:30N 39°16' W 076°35'1 1.8
2018-May-17 22:00N 39°16' W 076°36'0 0.0
2018-May-17 21:30N 39°16' W 076°36'0 0.0
2018-May-17 21:00N 39°16' W 076°36'0 0.0
2018-May-17 20:30N 39°16' W 076°36'0 0.0
2018-May-17 20:00N 39°16' W 076°36'0 0.0
2018-May-17 19:30N 39°16' W 076°36'0 0.0
2018-May-17 19:00N 39°16' W 076°36'  

Dump ship's entire track history